Time;durP1;ratioP1;P1;durP2;ratioP2;P2;SDS_P1;SDS_P2;PMS_P1;PMS_P2;Temp;Humidity;BMP_temperature;BMP_pressure;BME280_temperature;BME280_humidity;BME280_pressure;Samples;Min_cycle;Max_cycle;Signal;HPM_P1;HPM_P2
2022/07/19 00:01:23;;;;;;;;;;;19.80;99.90;;;;;;5035173;28;19920;-79
2022/07/19 00:03:49;;;;;;;;;;;19.80;99.90;;;;;;5035941;28;20531;-79
2022/07/19 00:06:14;;;;;;;;;;;19.70;99.90;;;;;;5035213;28;20008;-79
2022/07/19 00:08:40;;;;;;;;;;;19.70;99.90;;;;;;5034483;28;19947;-78
2022/07/19 00:11:06;;;;;;;;;;;19.70;99.90;;;;;;5034588;28;19956;-79
2022/07/19 00:13:31;;;;;;;;;;;19.70;99.90;;;;;;5036164;28;19931;-79
2022/07/19 00:15:57;;;;;;;;;;;19.70;99.90;;;;;;5035708;28;20008;-79
2022/07/19 00:18:22;;;;;;;;;;;19.70;99.90;;;;;;5033486;28;20011;-79
2022/07/19 00:20:48;;;;;;;;;;;19.60;99.90;;;;;;5035805;28;19959;-79
2022/07/19 00:23:13;;;;;;;;;;;19.60;99.90;;;;;;5035990;28;19921;-79
2022/07/19 00:25:39;;;;;;;;;;;19.60;99.90;;;;;;5034479;28;19917;-79
2022/07/19 00:28:05;;;;;;;;;;;19.50;99.90;;;;;;5034472;28;20342;-79
2022/07/19 00:30:30;;;;;;;;;;;19.50;99.90;;;;;;5035847;28;20362;-80
2022/07/19 00:32:56;;;;;;;;;;;19.50;99.90;;;;;;5034794;28;19967;-79
2022/07/19 00:35:22;;;;;;;;;;;19.50;99.90;;;;;;5034563;28;19913;-81
2022/07/19 00:37:48;;;;;;;;;;;19.50;99.90;;;;;;5033979;28;20018;-79
2022/07/19 00:40:15;;;;;;;;;;;19.50;99.90;;;;;;5034915;28;20638;-79
2022/07/19 00:42:40;;;;;;;;;;;19.50;99.90;;;;;;5033693;28;19921;-80
2022/07/19 00:45:06;;;;;;;;;;;19.50;99.90;;;;;;5035002;28;20336;-79
2022/07/19 00:47:32;;;;;;;;;;;19.50;99.90;;;;;;5034579;28;19960;-81
2022/07/19 00:49:57;;;;;;;;;;;19.50;99.90;;;;;;5034635;28;20008;-79
2022/07/19 00:52:25;;;;;;;;;;;19.50;99.90;;;;;;5034080;28;19928;-79
2022/07/19 00:54:52;;;;;;;;;;;19.50;99.90;;;;;;5035045;28;19963;-79
2022/07/19 00:57:18;;;;;;;;;;;19.50;99.90;;;;;;5035374;28;19913;-79
2022/07/19 00:59:45;;;;;;;;;;;19.40;99.90;;;;;;5032942;28;19913;-79
2022/07/19 01:02:11;;;;;;;;;;;19.40;99.90;;;;;;5034305;28;20307;-79
2022/07/19 01:04:37;;;;;;;;;;;19.30;99.90;;;;;;5034836;28;20244;-79
2022/07/19 01:07:03;;;;;;;;;;;19.30;99.90;;;;;;5033594;28;19914;-79
2022/07/19 01:09:28;;;;;;;;;;;19.20;99.90;;;;;;5035343;28;19916;-79
2022/07/19 01:11:55;;;;;;;;;;;19.20;99.90;;;;;;5033754;28;20236;-81
2022/07/19 01:14:21;;;;;;;;;;;19.30;99.90;;;;;;5034807;28;20240;-79
2022/07/19 01:16:46;;;;;;;;;;;19.20;99.90;;;;;;5032119;28;19913;-79
2022/07/19 01:19:13;;;;;;;;;;;19.20;99.90;;;;;;5031913;28;19913;-79
2022/07/19 01:21:39;;;;;;;;;;;19.10;99.90;;;;;;5034871;28;19913;-79
2022/07/19 01:24:05;;;;;;;;;;;19.10;99.90;;;;;;5033443;28;19928;-79
2022/07/19 01:26:30;;;;;;;;;;;19.20;99.90;;;;;;5034256;28;19917;-79
2022/07/19 01:28:56;;;;;;;;;;;19.20;99.90;;;;;;5033200;28;20028;-79
2022/07/19 01:31:21;;;;;;;;;;;19.20;99.90;;;;;;5035396;28;19916;-79
2022/07/19 01:33:47;;;;;;;;;;;19.10;99.90;;;;;;5033063;28;20292;-78
2022/07/19 01:36:13;;;;;;;;;;;19.10;99.90;;;;;;5033211;28;19959;-78
2022/07/19 01:38:39;;;;;;;;;;;19.10;99.90;;;;;;5033083;28;19921;-78
2022/07/19 01:41:05;;;;;;;;;;;19.10;99.90;;;;;;5035013;28;19963;-80
2022/07/19 01:43:31;;;;;;;;;;;19.00;99.90;;;;;;5033368;28;19917;-79
2022/07/19 01:45:57;;;;;;;;;;;18.90;99.90;;;;;;5033722;28;19924;-79
2022/07/19 01:48:23;;;;;;;;;;;18.90;99.90;;;;;;5032868;28;19917;-79
2022/07/19 01:50:49;;;;;;;;;;;18.80;99.90;;;;;;5033736;28;20212;-79
2022/07/19 01:53:14;;;;;;;;;;;18.80;99.90;;;;;;5032677;28;19917;-80
2022/07/19 01:55:40;;;;;;;;;;;18.90;99.90;;;;;;5032554;28;20224;-79
2022/07/19 01:58:05;;;;;;;;;;;18.80;99.90;;;;;;5033282;28;20262;-79
2022/07/19 02:00:31;;;;;;;;;;;18.80;99.90;;;;;;5031774;28;20272;-79
2022/07/19 02:02:56;;;;;;;;;;;18.90;99.90;;;;;;5033159;28;19917;-79
2022/07/19 02:05:22;;;;;;;;;;;18.80;99.90;;;;;;5032733;28;19917;-80
2022/07/19 02:07:48;;;;;;;;;;;18.70;99.90;;;;;;5032854;28;20219;-79
2022/07/19 02:10:14;;;;;;;;;;;18.80;99.90;;;;;;5034470;28;19955;-80
2022/07/19 02:12:40;;;;;;;;;;;18.70;99.90;;;;;;5033498;28;19990;-79
2022/07/19 02:15:06;;;;;;;;;;;18.70;99.90;;;;;;5032991;28;19921;-80
2022/07/19 02:17:31;;;;;;;;;;;18.70;99.90;;;;;;5032732;28;19916;-79
2022/07/19 02:19:57;;;;;;;;;;;18.70;99.90;;;;;;5033532;28;19992;-79
2022/07/19 02:22:22;;;;;;;;;;;18.70;99.90;;;;;;5034664;28;20305;-79
2022/07/19 02:24:48;;;;;;;;;;;18.70;99.90;;;;;;5033584;28;20224;-79
2022/07/19 02:27:13;;;;;;;;;;;18.80;99.90;;;;;;5033342;28;19932;-78
2022/07/19 02:29:39;;;;;;;;;;;18.80;99.90;;;;;;5033782;28;19949;-79
2022/07/19 02:32:05;;;;;;;;;;;18.70;99.90;;;;;;5032657;28;19944;-79
2022/07/19 02:34:31;;;;;;;;;;;18.70;99.90;;;;;;5033698;28;19913;-79
2022/07/19 02:36:56;;;;;;;;;;;18.60;99.90;;;;;;5034473;28;19909;-79
2022/07/19 02:39:22;;;;;;;;;;;18.60;99.90;;;;;;5034308;28;19921;-78
2022/07/19 02:41:47;;;;;;;;;;;18.50;99.90;;;;;;5032649;28;19909;-78
2022/07/19 02:44:13;;;;;;;;;;;18.50;99.90;;;;;;5033651;28;20312;-80
2022/07/19 02:46:39;;;;;;;;;;;18.40;99.90;;;;;;5033797;28;20216;-78
2022/07/19 02:49:04;;;;;;;;;;;18.40;99.90;;;;;;5034369;28;19916;-78
2022/07/19 02:51:30;;;;;;;;;;;18.40;99.90;;;;;;5032228;28;20022;-79
2022/07/19 02:53:55;;;;;;;;;;;18.40;99.90;;;;;;5034293;28;19909;-78
2022/07/19 02:56:21;;;;;;;;;;;18.40;99.90;;;;;;5036254;28;20063;-78
2022/07/19 02:58:46;;;;;;;;;;;18.40;99.90;;;;;;5035907;28;19909;-78
2022/07/19 03:01:12;;;;;;;;;;;18.40;99.90;;;;;;5034905;28;20201;-79
2022/07/19 03:03:43;;;;;;;;;;;18.30;99.90;;;;;;5035995;28;20000;-78
2022/07/19 03:06:10;;;;;;;;;;;18.30;99.90;;;;;;5038050;28;19920;-79
2022/07/19 03:08:35;;;;;;;;;;;18.20;99.90;;;;;;5035818;28;19909;-78
2022/07/19 03:11:01;;;;;;;;;;;18.20;99.90;;;;;;5037691;28;20205;-79
2022/07/19 03:13:27;;;;;;;;;;;18.20;99.90;;;;;;5037429;28;19909;-80
2022/07/19 03:15:52;;;;;;;;;;;18.20;99.90;;;;;;5036871;28;19928;-79
2022/07/19 03:18:18;;;;;;;;;;;18.20;99.90;;;;;;5037651;28;19909;-79
2022/07/19 03:20:43;;;;;;;;;;;18.20;99.90;;;;;;5035433;28;19913;-78
2022/07/19 03:23:09;;;;;;;;;;;18.20;99.90;;;;;;5036009;28;20007;-78
2022/07/19 03:25:34;;;;;;;;;;;18.20;99.90;;;;;;5021627;28;19963;-78
2022/07/19 03:28:00;;;;;;;;;;;18.20;99.90;;;;;;5036206;28;20350;-78
2022/07/19 03:30:26;;;;;;;;;;;18.20;99.90;;;;;;5036629;28;19917;-79
2022/07/19 03:32:51;;;;;;;;;;;18.20;99.90;;;;;;5036486;28;20359;-78
2022/07/19 03:35:17;;;;;;;;;;;18.20;99.90;;;;;;5036791;28;19986;-79
2022/07/19 03:37:43;;;;;;;;;;;18.10;99.90;;;;;;5036445;28;19913;-78
2022/07/19 03:40:09;;;;;;;;;;;18.10;99.90;;;;;;5035662;28;19916;-77
2022/07/19 03:42:34;;;;;;;;;;;18.00;99.90;;;;;;5039258;28;19975;-80
2022/07/19 03:45:00;;;;;;;;;;;18.00;99.90;;;;;;5036910;28;19913;-79
2022/07/19 03:47:25;;;;;;;;;;;18.10;99.90;;;;;;5037107;28;19916;-78
2022/07/19 03:49:51;;;;;;;;;;;18.00;99.90;;;;;;5036131;28;19940;-79
2022/07/19 03:52:16;;;;;;;;;;;18.00;99.90;;;;;;5035988;28;19964;-78
2022/07/19 03:54:42;;;;;;;;;;;18.00;99.90;;;;;;5036917;28;19909;-78
2022/07/19 03:57:08;;;;;;;;;;;18.00;99.90;;;;;;5035983;28;19909;-78
2022/07/19 03:59:34;;;;;;;;;;;18.00;99.90;;;;;;5035140;28;19920;-80
2022/07/19 04:02:00;;;;;;;;;;;18.00;99.90;;;;;;5032897;28;19968;-80
2022/07/19 04:04:25;;;;;;;;;;;18.00;99.90;;;;;;5035423;28;19999;-79
2022/07/19 04:06:51;;;;;;;;;;;18.00;99.90;;;;;;5033757;28;20285;-79
2022/07/19 04:09:16;;;;;;;;;;;18.00;99.90;;;;;;5036423;28;19913;-79
2022/07/19 04:11:42;;;;;;;;;;;17.90;99.90;;;;;;5035089;28;19919;-78
2022/07/19 04:14:07;;;;;;;;;;;18.00;99.90;;;;;;5034197;28;20271;-78
2022/07/19 04:16:33;;;;;;;;;;;17.90;99.90;;;;;;5035242;28;19916;-78
2022/07/19 04:18:58;;;;;;;;;;;18.00;99.90;;;;;;5035827;28;19928;-79
2022/07/19 04:21:24;;;;;;;;;;;18.10;99.90;;;;;;5035000;28;20327;-80
2022/07/19 04:23:49;;;;;;;;;;;18.10;99.90;;;;;;5035769;28;20023;-79
2022/07/19 04:26:15;;;;;;;;;;;18.10;99.90;;;;;;5036326;28;19917;-80
2022/07/19 04:28:40;;;;;;;;;;;18.10;99.90;;;;;;5035984;28;20232;-79
2022/07/19 04:31:06;;;;;;;;;;;18.10;99.90;;;;;;5022439;28;20213;-79
2022/07/19 04:33:32;;;;;;;;;;;18.20;99.90;;;;;;5036717;28;19913;-80
2022/07/19 04:35:57;;;;;;;;;;;18.20;99.90;;;;;;5033936;28;19922;-78
2022/07/19 04:38:23;;;;;;;;;;;18.20;99.90;;;;;;5033702;28;19928;-79
2022/07/19 04:40:49;;;;;;;;;;;18.20;99.90;;;;;;5036670;28;19913;-81
2022/07/19 04:43:15;;;;;;;;;;;18.30;99.90;;;;;;5033025;28;19921;-79
2022/07/19 04:45:42;;;;;;;;;;;18.40;99.90;;;;;;5034776;28;19921;-79
2022/07/19 04:48:07;;;;;;;;;;;18.40;99.90;;;;;;5033781;28;19921;-80
2022/07/19 04:50:33;;;;;;;;;;;18.50;99.90;;;;;;5035757;28;19913;-78
2022/07/19 04:52:58;;;;;;;;;;;18.50;99.90;;;;;;5033198;28;20298;-81
2022/07/19 04:55:24;;;;;;;;;;;18.60;99.90;;;;;;5033916;28;20055;-78
2022/07/19 04:57:49;;;;;;;;;;;18.70;99.90;;;;;;5035727;28;20204;-79
2022/07/19 05:00:15;;;;;;;;;;;18.70;99.90;;;;;;5017033;28;19917;-79
2022/07/19 05:02:41;;;;;;;;;;;18.80;99.90;;;;;;5021697;28;19925;-78
2022/07/19 05:05:07;;;;;;;;;;;18.90;99.90;;;;;;5030755;28;19913;-80
2022/07/19 05:07:32;;;;;;;;;;;18.90;99.90;;;;;;5033214;28;19913;-79
2022/07/19 05:09:58;;;;;;;;;;;19.00;99.90;;;;;;5035147;28;19913;-78
2022/07/19 05:12:23;;;;;;;;;;;19.10;99.90;;;;;;5036017;28;20304;-80
2022/07/19 05:14:49;;;;;;;;;;;19.10;99.90;;;;;;5034688;28;19925;-78
2022/07/19 05:17:15;;;;;;;;;;;19.20;99.90;;;;;;5033417;28;19955;-80
2022/07/19 05:19:41;;;;;;;;;;;19.30;99.90;;;;;;5034493;28;19917;-78
2022/07/19 05:22:06;;;;;;;;;;;19.30;99.90;;;;;;5033346;28;19914;-78
2022/07/19 05:24:32;;;;;;;;;;;19.30;99.90;;;;;;5033744;28;20201;-79
2022/07/19 05:26:57;;;;;;;;;;;19.30;99.90;;;;;;5034758;28;19932;-79
2022/07/19 05:29:23;;;;;;;;;;;19.40;99.90;;;;;;5033441;28;19970;-78
2022/07/19 05:31:48;;;;;;;;;;;19.50;99.90;;;;;;5034753;28;19959;-78
2022/07/19 05:34:14;;;;;;;;;;;19.60;99.90;;;;;;5033130;28;19913;-80
2022/07/19 05:36:40;;;;;;;;;;;19.70;99.90;;;;;;5033432;28;20304;-81
2022/07/19 05:39:05;;;;;;;;;;;19.90;99.90;;;;;;5034144;28;19917;-83
2022/07/19 05:41:31;;;;;;;;;;;19.90;99.90;;;;;;5032804;28;19917;-79
2022/07/19 05:43:56;;;;;;;;;;;20.10;99.90;;;;;;5034395;28;19917;-81
2022/07/19 05:46:22;;;;;;;;;;;20.10;99.90;;;;;;5040507;28;19916;-79
2022/07/19 05:48:48;;;;;;;;;;;20.20;99.90;;;;;;5045552;28;19913;-80
2022/07/19 05:51:14;;;;;;;;;;;20.20;99.90;;;;;;5040282;28;19917;-78
2022/07/19 05:53:39;;;;;;;;;;;20.30;99.90;;;;;;5041010;28;19918;-78
2022/07/19 05:56:05;;;;;;;;;;;20.40;99.90;;;;;;5049560;28;19913;-78
2022/07/19 05:58:31;;;;;;;;;;;20.60;99.90;;;;;;5043940;28;19967;-78
2022/07/19 06:03:41;;;;;;;;;;;20.80;99.90;;;;;;5036221;28;19928;-79
2022/07/19 06:06:07;;;;;;;;;;;20.90;99.90;;;;;;5049312;28;19913;-79
2022/07/19 06:08:32;;;;;;;;;;;21.00;99.90;;;;;;5043200;28;20292;-78
2022/07/19 06:10:58;;;;;;;;;;;21.10;99.90;;;;;;5047348;28;19913;-78
2022/07/19 06:13:24;;;;;;;;;;;21.20;99.90;;;;;;5046961;28;19917;-79
2022/07/19 06:15:50;;;;;;;;;;;21.30;99.90;;;;;;5044327;28;20209;-78
2022/07/19 06:18:16;;;;;;;;;;;21.40;99.90;;;;;;5042725;28;19920;-78
2022/07/19 06:20:41;;;;;;;;;;;21.50;99.90;;;;;;5047093;28;20000;-79
2022/07/19 06:23:07;;;;;;;;;;;21.60;99.90;;;;;;5032130;28;20267;-81
2022/07/19 06:25:33;;;;;;;;;;;21.80;99.90;;;;;;5033145;28;19909;-80
2022/07/19 06:27:58;;;;;;;;;;;21.90;99.90;;;;;;5049535;28;19913;-79
2022/07/19 06:30:24;;;;;;;;;;;22.00;99.90;;;;;;5049602;28;20004;-79
2022/07/19 06:32:50;;;;;;;;;;;22.20;99.90;;;;;;5042683;28;19963;-77
2022/07/19 06:35:15;;;;;;;;;;;22.40;99.90;;;;;;5037152;28;19916;-79
2022/07/19 06:37:41;;;;;;;;;;;22.50;99.90;;;;;;5037529;28;19956;-78
2022/07/19 06:40:07;;;;;;;;;;;22.60;99.90;;;;;;5038423;28;19936;-80
2022/07/19 06:42:33;;;;;;;;;;;22.80;99.90;;;;;;5036017;28;19936;-78
2022/07/19 06:45:01;;;;;;;;;;;22.90;99.90;;;;;;5037728;28;19918;-78
2022/07/19 06:47:27;;;;;;;;;;;23.20;99.90;;;;;;5044861;28;19912;-78
2022/07/19 06:49:53;;;;;;;;;;;23.30;99.90;;;;;;5049960;28;20000;-80
2022/07/19 06:52:19;;;;;;;;;;;23.50;99.90;;;;;;5049781;28;20046;-78
2022/07/19 06:54:44;;;;;;;;;;;23.70;99.90;;;;;;5040866;28;20222;-78
2022/07/19 06:57:10;;;;;;;;;;;23.90;99.90;;;;;;5051923;28;20191;-79
2022/07/19 06:59:35;;;;;;;;;;;24.00;99.90;;;;;;5044886;28;19979;-80
2022/07/19 07:02:01;;;;;;;;;;;24.10;99.90;;;;;;5048564;28;19992;-78
2022/07/19 07:04:27;;;;;;;;;;;24.30;99.90;;;;;;5048733;28;19967;-78
2022/07/19 07:06:52;;;;;;;;;;;24.30;99.90;;;;;;5047736;28;19912;-79
2022/07/19 07:09:18;;;;;;;;;;;24.40;99.90;;;;;;5046066;28;20364;-80
2022/07/19 07:11:44;;;;;;;;;;;24.60;99.90;;;;;;5042319;28;19983;-79
2022/07/19 07:14:09;;;;;;;;;;;24.70;99.90;;;;;;5036893;28;19917;-79
2022/07/19 07:16:35;;;;;;;;;;;24.80;99.90;;;;;;5034743;28;19917;-80
2022/07/19 07:19:00;;;;;;;;;;;25.00;99.90;;;;;;5034757;28;19956;-79
2022/07/19 07:21:26;;;;;;;;;;;25.10;99.90;;;;;;5019359;28;19917;-78
2022/07/19 07:23:51;;;;;;;;;;;25.30;99.90;;;;;;5036548;28;19928;-76
2022/07/19 07:26:17;;;;;;;;;;;25.40;99.90;;;;;;5036384;28;19913;-79
2022/07/19 07:28:42;;;;;;;;;;;25.50;99.90;;;;;;5036743;28;20213;-79
2022/07/19 07:31:08;;;;;;;;;;;25.70;99.90;;;;;;5037049;28;19937;-81
2022/07/19 07:33:34;;;;;;;;;;;25.80;99.90;;;;;;5036998;28;19913;-79
2022/07/19 07:35:59;;;;;;;;;;;26.00;99.90;;;;;;5037021;28;19917;-78
2022/07/19 07:38:25;;;;;;;;;;;26.20;99.90;;;;;;5035681;28;20010;-79
2022/07/19 07:40:50;;;;;;;;;;;26.30;99.90;;;;;;5035847;28;19913;-79
2022/07/19 07:43:16;;;;;;;;;;;26.50;99.90;;;;;;5036794;28;19921;-79
2022/07/19 07:45:42;;;;;;;;;;;26.80;99.60;;;;;;5036860;28;19916;-80
2022/07/19 07:48:08;;;;;;;;;;;27.00;99.70;;;;;;5036331;28;19913;-84
2022/07/19 07:50:33;;;;;;;;;;;27.20;98.90;;;;;;5036959;28;19916;-77
2022/07/19 07:52:59;;;;;;;;;;;27.50;98.40;;;;;;5036952;28;20379;-80
2022/07/19 07:55:24;;;;;;;;;;;27.80;97.10;;;;;;5035358;28;19951;-79
2022/07/19 07:57:50;;;;;;;;;;;28.00;98.50;;;;;;5036786;28;19909;-82
2022/07/19 08:00:16;;;;;;;;;;;28.30;97.10;;;;;;5036223;28;19909;-78
2022/07/19 08:02:42;;;;;;;;;;;28.60;97.10;;;;;;5035799;28;19909;-79
2022/07/19 08:05:08;;;;;;;;;;;28.80;97.00;;;;;;5036237;28;19999;-80
2022/07/19 08:07:34;;;;;;;;;;;29.20;95.50;;;;;;5036661;28;19968;-79
2022/07/19 08:10:00;;;;;;;;;;;29.40;95.50;;;;;;5035427;28;20012;-80
2022/07/19 08:12:26;;;;;;;;;;;29.60;96.40;;;;;;5035987;28;20300;-76
2022/07/19 08:14:52;;;;;;;;;;;29.90;95.10;;;;;;5035138;28;20032;-83
2022/07/19 08:17:17;;;;;;;;;;;30.10;94.70;;;;;;5033442;28;19925;-82
2022/07/19 08:19:43;;;;;;;;;;;30.30;93.60;;;;;;5035172;28;19913;-80
2022/07/19 08:22:08;;;;;;;;;;;30.60;93.90;;;;;;5035871;28;20464;-80
2022/07/19 08:24:34;;;;;;;;;;;30.80;93.00;;;;;;5035163;28;20273;-81
2022/07/19 08:26:59;;;;;;;;;;;31.00;94.50;;;;;;5036273;28;19932;-80
2022/07/19 08:29:25;;;;;;;;;;;31.30;93.50;;;;;;5035700;28;19909;-79
2022/07/19 08:31:51;;;;;;;;;;;31.50;92.70;;;;;;5036073;28;20012;-80
2022/07/19 08:34:16;;;;;;;;;;;31.60;91.30;;;;;;5034331;28;19913;-79
2022/07/19 08:36:42;;;;;;;;;;;31.90;91.10;;;;;;5034960;28;19960;-82
2022/07/19 08:39:07;;;;;;;;;;;32.10;92.70;;;;;;5034522;28;19910;-79
2022/07/19 08:41:34;;;;;;;;;;;32.30;91.70;;;;;;5036041;28;19909;-79
2022/07/19 08:44:02;;;;;;;;;;;32.50;89.10;;;;;;5035635;28;19917;-80
2022/07/19 08:46:28;;;;;;;;;;;32.50;90.80;;;;;;5034148;28;20208;-78
2022/07/19 08:48:54;;;;;;;;;;;32.80;87.90;;;;;;5035850;28;19959;-80
2022/07/19 08:51:20;;;;;;;;;;;33.00;88.90;;;;;;5035894;28;19968;-80
2022/07/19 08:53:46;;;;;;;;;;;33.20;89.90;;;;;;5034763;28;19909;-79
2022/07/19 08:59:10;;;;;;;;;;;33.60;89.30;;;;;;5022516;28;19917;-80
2022/07/19 09:01:36;;;;;;;;;;;33.90;88.50;;;;;;5034518;28;20232;-80
2022/07/19 09:04:05;;;;;;;;;;;34.00;85.80;;;;;;5033761;28;20492;-81
2022/07/19 09:06:42;;;;;;;;;;;34.00;85.50;;;;;;5034373;28;19917;-80
2022/07/19 09:09:08;;;;;;;;;;;34.10;85.80;;;;;;5017765;28;19913;-78
2022/07/19 09:11:50;;;;;;;;;;;34.40;87.10;;;;;;5027491;28;19909;-77
2022/07/19 09:14:17;;;;;;;;;;;34.50;82.50;;;;;;5021570;28;20568;-79
2022/07/19 09:16:53;;;;;;;;;;;34.60;80.90;;;;;;5034131;28;20055;-78
2022/07/19 09:19:19;;;;;;;;;;;34.60;84.60;;;;;;5034527;28;20312;-79
2022/07/19 09:21:52;;;;;;;;;;;34.50;79.40;;;;;;5035528;28;19913;-78
2022/07/19 09:24:18;;;;;;;;;;;34.30;78.00;;;;;;5034567;28;19913;-77
2022/07/19 09:26:56;;;;;;;;;;;34.30;80.80;;;;;;5033966;28;20067;-76
2022/07/19 09:29:21;;;;;;;;;;;34.60;81.50;;;;;;5034596;28;19924;-79
2022/07/19 09:31:59;;;;;;;;;;;34.60;77.80;;;;;;5035034;28;19910;-77
2022/07/19 09:34:29;;;;;;;;;;;34.70;78.70;;;;;;5033499;28;19913;-77
2022/07/19 09:37:07;;;;;;;;;;;34.70;78.30;;;;;;5035193;28;19913;-76
2022/07/19 09:39:33;;;;;;;;;;;34.90;79.50;;;;;;5033322;28;20309;-76
2022/07/19 09:41:58;;;;;;;;;;;34.80;77.50;;;;;;5035102;28;20008;-74
2022/07/19 09:44:24;;;;;;;;;;;34.80;75.80;;;;;;5034947;28;19928;-75
2022/07/19 09:46:50;;;;;;;;;;;34.80;78.40;;;;;;5034221;28;20300;-79
2022/07/19 09:49:17;;;;;;;;;;;35.00;78.70;;;;;;5033851;28;19909;-79
2022/07/19 09:51:43;;;;;;;;;;;35.30;76.10;;;;;;5033261;28;20257;-79
2022/07/19 09:54:10;;;;;;;;;;;35.50;79.70;;;;;;5033830;28;19920;-80
2022/07/19 09:56:37;;;;;;;;;;;35.80;82.00;;;;;;5032953;28;19916;-77
2022/07/19 09:59:02;;;;;;;;;;;35.90;90.40;;;;;;5033651;28;19909;-77
2022/07/19 10:01:29;;;;;;;;;;;35.70;90.60;;;;;;5034877;28;19917;-78
2022/07/19 10:03:57;;;;;;;;;;;35.70;91.60;;;;;;5034180;28;19917;-78
2022/07/19 10:06:24;;;;;;;;;;;35.90;91.20;;;;;;5038655;28;20212;-80
2022/07/19 10:08:50;;;;;;;;;;;36.10;91.50;;;;;;5038714;28;19909;-78
2022/07/19 10:11:17;;;;;;;;;;;36.40;90.00;;;;;;5038735;28;20343;-78
2022/07/19 10:13:43;;;;;;;;;;;36.50;90.60;;;;;;5037143;28;19909;-79
2022/07/19 10:16:13;;;;;;;;;;;36.80;87.80;;;;;;5037497;28;19928;-79
2022/07/19 10:18:54;;;;;;;;;;;37.10;88.00;;;;;;5037084;28;19913;-78
2022/07/19 10:21:20;;;;;;;;;;;37.00;87.70;;;;;;5038578;28;19913;-78
2022/07/19 10:23:52;;;;;;;;;;;37.00;84.70;;;;;;5037934;28;19917;-79
2022/07/19 10:26:34;;;;;;;;;;;37.20;82.30;;;;;;5037398;28;20263;-79
2022/07/19 10:29:15;;;;;;;;;;;37.30;84.80;;;;;;5037947;28;19913;-80
2022/07/19 10:31:42;;;;;;;;;;;37.40;85.40;;;;;;5038101;28;20327;-78
2022/07/19 10:34:10;;;;;;;;;;;37.60;81.30;;;;;;5038114;28;19940;-77
2022/07/19 10:36:35;;;;;;;;;;;37.50;81.70;;;;;;5038449;28;19959;-78
2022/07/19 10:39:21;;;;;;;;;;;37.60;78.20;;;;;;5038643;28;19917;-77
2022/07/19 10:42:06;;;;;;;;;;;37.70;76.90;;;;;;5036557;28;19913;-77
2022/07/19 10:44:32;;;;;;;;;;;37.70;79.30;;;;;;5038182;28;19919;-77
2022/07/19 10:46:58;;;;;;;;;;;37.80;81.90;;;;;;5036989;28;19916;-79
2022/07/19 10:49:45;;;;;;;;;;;38.00;80.40;;;;;;5037188;28;19921;-77
2022/07/19 10:52:26;;;;;;;;;;;37.90;80.00;;;;;;5031289;28;19923;-79
2022/07/19 10:55:11;;;;;;;;;;;38.00;83.70;;;;;;5036426;28;19913;-78
2022/07/19 10:57:37;;;;;;;;;;;38.30;80.30;;;;;;5037926;28;19909;-78
2022/07/19 11:00:15;;;;;;;;;;;38.30;82.10;;;;;;5037431;28;19955;-77
2022/07/19 11:02:41;;;;;;;;;;;38.30;77.30;;;;;;5037675;28;19917;-79
2022/07/19 11:05:06;;;;;;;;;;;38.30;80.70;;;;;;5036131;28;19920;-79
2022/07/19 11:07:32;;;;;;;;;;;38.40;80.60;;;;;;5037295;28;19913;-79
2022/07/19 11:09:58;;;;;;;;;;;38.50;79.10;;;;;;5038096;28;19941;-79
2022/07/19 11:12:25;;;;;;;;;;;38.60;78.90;;;;;;5037607;28;19948;-76
2022/07/19 11:14:51;;;;;;;;;;;38.70;77.70;;;;;;5036106;28;19928;-78
2022/07/19 11:17:17;;;;;;;;;;;38.70;78.70;;;;;;5035765;28;19924;-77
2022/07/19 11:19:58;;;;;;;;;;;38.70;74.80;;;;;;5037141;28;19919;-76
2022/07/19 11:22:23;;;;;;;;;;;38.70;75.10;;;;;;5037093;28;19917;-78
2022/07/19 11:24:49;;;;;;;;;;;38.70;76.10;;;;;;5037474;28;19923;-76
2022/07/19 11:27:15;;;;;;;;;;;38.90;75.30;;;;;;5036780;28;19936;-76
2022/07/19 11:30:03;;;;;;;;;;;39.00;75.10;;;;;;5035939;28;19917;-77
2022/07/19 11:32:28;;;;;;;;;;;39.10;75.50;;;;;;5036803;28;19913;-77
2022/07/19 11:35:01;;;;;;;;;;;39.10;74.90;;;;;;5037248;28;19913;-74
2022/07/19 11:37:29;;;;;;;;;;;39.20;76.20;;;;;;5035705;28;19909;-75
2022/07/19 11:39:57;;;;;;;;;;;39.30;76.70;;;;;;5035801;28;19913;-76
2022/07/19 11:42:39;;;;;;;;;;;39.30;73.60;;;;;;5036947;28;20208;-75
2022/07/19 11:45:21;;;;;;;;;;;39.40;75.80;;;;;;5036841;28;19917;-73
2022/07/19 11:47:49;;;;;;;;;;;39.50;69.50;;;;;;5036893;28;20009;-75
2022/07/19 11:50:15;;;;;;;;;;;39.40;67.30;;;;;;5035283;28;19921;-74
2022/07/19 11:52:45;;;;;;;;;;;39.30;69.70;;;;;;5036953;28;20355;-75
2022/07/19 11:55:11;;;;;;;;;;;39.20;69.00;;;;;;5035308;28;19917;-73
2022/07/19 11:57:37;;;;;;;;;;;39.20;69.00;;;;;;5037156;28;20300;-75
2022/07/19 12:00:03;;;;;;;;;;;39.20;67.50;;;;;;5035170;28;19909;-75
2022/07/19 12:02:29;;;;;;;;;;;39.30;68.80;;;;;;5036778;28;19917;-72
2022/07/19 12:04:54;;;;;;;;;;;39.40;66.00;;;;;;5035649;28;19983;-74
2022/07/19 12:07:20;;;;;;;;;;;39.40;67.90;;;;;;5036083;28;19909;-73
2022/07/19 12:09:46;;;;;;;;;;;39.40;68.70;;;;;;5036706;28;19960;-75
2022/07/19 12:12:12;;;;;;;;;;;39.30;67.70;;;;;;5035145;28;19921;-73
2022/07/19 12:14:40;;;;;;;;;;;39.40;68.10;;;;;;5035181;28;20288;-75
2022/07/19 12:17:16;;;;;;;;;;;39.40;67.70;;;;;;5034827;28;19918;-74
2022/07/19 12:19:42;;;;;;;;;;;39.50;67.40;;;;;;5041710;28;19925;-74
2022/07/19 12:22:27;;;;;;;;;;;39.50;68.00;;;;;;5026156;28;19909;-81
2022/07/19 12:24:52;;;;;;;;;;;39.40;68.00;;;;;;5036422;28;19913;-73
2022/07/19 12:27:18;;;;;;;;;;;39.50;66.20;;;;;;5033930;28;19909;-78
2022/07/19 12:29:45;;;;;;;;;;;39.50;66.70;;;;;;5035065;28;19916;-74
2022/07/19 12:32:11;;;;;;;;;;;39.50;66.90;;;;;;5036134;28;19951;-76
2022/07/19 12:34:51;;;;;;;;;;;39.30;67.20;;;;;;5035682;28;19909;-77
2022/07/19 12:37:22;;;;;;;;;;;39.40;67.50;;;;;;5034921;28;19909;-75
2022/07/19 12:40:05;;;;;;;;;;;39.50;67.10;;;;;;5036104;28;19909;-75
2022/07/19 12:42:37;;;;;;;;;;;39.50;67.50;;;;;;5035305;28;19909;-74
2022/07/19 12:45:03;;;;;;;;;;;39.50;66.80;;;;;;5035818;28;19917;-75
2022/07/19 12:47:29;;;;;;;;;;;39.50;65.80;;;;;;5035816;28;19913;-74
2022/07/19 12:49:55;;;;;;;;;;;39.40;66.40;;;;;;5033194;28;19923;-74
2022/07/19 12:52:20;;;;;;;;;;;39.50;68.10;;;;;;5035843;28;20221;-74
2022/07/19 12:54:46;;;;;;;;;;;39.60;68.50;;;;;;5035489;28;20894;-73
2022/07/19 12:57:11;;;;;;;;;;;39.60;66.50;;;;;;5035185;28;20464;-73
2022/07/19 12:59:40;;;;;;;;;;;39.50;66.50;;;;;;5034664;28;19920;-76
2022/07/19 13:02:06;;;;;;;;;;;39.60;67.10;;;;;;5035239;28;19909;-74
2022/07/19 13:04:32;;;;;;;;;;;39.50;67.90;;;;;;5034468;28;20375;-74
2022/07/19 13:06:58;;;;;;;;;;;39.60;66.60;;;;;;5033560;28;20047;-77
2022/07/19 13:09:23;;;;;;;;;;;39.50;67.00;;;;;;5034475;28;19920;-73
2022/07/19 13:11:49;;;;;;;;;;;39.50;67.90;;;;;;5035009;28;19913;-74
2022/07/19 13:14:14;;;;;;;;;;;39.60;67.20;;;;;;5050618;28;19913;-74
2022/07/19 13:16:40;;;;;;;;;;;39.60;66.70;;;;;;5035182;28;19917;-75
2022/07/19 13:19:06;;;;;;;;;;;39.60;68.80;;;;;;5034944;28;19916;-75
2022/07/19 13:21:32;;;;;;;;;;;39.80;66.50;;;;;;5035483;28;19912;-74
2022/07/19 13:23:57;;;;;;;;;;;39.80;67.80;;;;;;5034743;28;19913;-74
2022/07/19 13:26:23;;;;;;;;;;;39.70;68.80;;;;;;5034046;28;20316;-74
2022/07/19 13:28:48;;;;;;;;;;;39.70;67.20;;;;;;5034799;28;19936;-75
2022/07/19 13:31:14;;;;;;;;;;;39.80;66.00;;;;;;5033754;28;19971;-75
2022/07/19 13:33:40;;;;;;;;;;;39.70;68.00;;;;;;5034668;28;20216;-73
2022/07/19 13:36:05;;;;;;;;;;;39.60;66.90;;;;;;5033569;28;19955;-76
2022/07/19 13:38:31;;;;;;;;;;;39.60;66.90;;;;;;5035031;28;19913;-74
2022/07/19 13:40:56;;;;;;;;;;;39.60;65.80;;;;;;5034845;28;20269;-74
2022/07/19 13:43:22;;;;;;;;;;;39.70;69.20;;;;;;5034688;28;19967;-75
2022/07/19 13:45:48;;;;;;;;;;;39.70;65.80;;;;;;5035072;28;20011;-74
2022/07/19 13:48:13;;;;;;;;;;;39.70;67.00;;;;;;5033301;28;19959;-74
2022/07/19 13:50:39;;;;;;;;;;;39.70;67.50;;;;;;5034795;28;19952;-74
2022/07/19 13:53:05;;;;;;;;;;;39.70;66.80;;;;;;5033883;28;19910;-76
2022/07/19 13:55:31;;;;;;;;;;;39.70;67.70;;;;;;5034219;28;19910;-73
2022/07/19 13:57:57;;;;;;;;;;;39.70;67.60;;;;;;5034728;28;19910;-74
2022/07/19 14:00:24;;;;;;;;;;;39.60;67.90;;;;;;5034298;28;19909;-73
2022/07/19 14:02:49;;;;;;;;;;;39.60;66.70;;;;;;5033677;28;19917;-74
2022/07/19 14:05:15;;;;;;;;;;;39.50;66.00;;;;;;5034223;28;19916;-74
2022/07/19 14:07:41;;;;;;;;;;;39.60;67.90;;;;;;5033557;28;20011;-74
2022/07/19 14:10:07;;;;;;;;;;;39.60;69.70;;;;;;5033445;28;20227;-75
2022/07/19 14:12:32;;;;;;;;;;;39.50;68.10;;;;;;5034069;28;19909;-75
2022/07/19 14:14:58;;;;;;;;;;;39.60;66.40;;;;;;5034266;28;19925;-73
2022/07/19 14:17:23;;;;;;;;;;;39.50;65.50;;;;;;5034188;28;19917;-75
2022/07/19 14:19:49;;;;;;;;;;;39.40;65.30;;;;;;5033538;28;20189;-75